sensor_id;sensor_type;location;lat;lon;timestamp;temperature;humidity
69009;SHT31;56065;52.472;13.380;2022-10-13T00:00:23;9.45;77.22
69009;SHT31;56065;52.472;13.380;2022-10-13T00:02:49;9.48;77.02
69009;SHT31;56065;52.472;13.380;2022-10-13T00:05:14;9.42;77.46
69009;SHT31;56065;52.472;13.380;2022-10-13T00:07:39;9.42;77.30
69009;SHT31;56065;52.472;13.380;2022-10-13T00:10:05;9.31;77.77
69009;SHT31;56065;52.472;13.380;2022-10-13T00:12:33;9.31;77.56
69009;SHT31;56065;52.472;13.380;2022-10-13T00:14:59;9.32;77.81
69009;SHT31;56065;52.472;13.380;2022-10-13T00:17:24;9.36;77.21
69009;SHT31;56065;52.472;13.380;2022-10-13T00:19:49;9.36;77.26
69009;SHT31;56065;52.472;13.380;2022-10-13T00:22:15;9.31;77.48
69009;SHT31;56065;52.472;13.380;2022-10-13T00:24:40;9.34;77.31
69009;SHT31;56065;52.472;13.380;2022-10-13T00:27:05;9.30;77.44
69009;SHT31;56065;52.472;13.380;2022-10-13T00:29:31;9.32;77.47
69009;SHT31;56065;52.472;13.380;2022-10-13T00:31:56;9.28;77.40
69009;SHT31;56065;52.472;13.380;2022-10-13T00:34:21;9.28;77.62
69009;SHT31;56065;52.472;13.380;2022-10-13T00:36:47;9.25;77.72
69009;SHT31;56065;52.472;13.380;2022-10-13T00:39:12;9.22;77.69
69009;SHT31;56065;52.472;13.380;2022-10-13T00:41:37;9.24;77.52
69009;SHT31;56065;52.472;13.380;2022-10-13T00:47:10;9.20;77.82
69009;SHT31;56065;52.472;13.380;2022-10-13T00:49:36;9.18;77.82
69009;SHT31;56065;52.472;13.380;2022-10-13T00:52:01;9.21;77.71
69009;SHT31;56065;52.472;13.380;2022-10-13T00:54:26;9.18;77.64
69009;SHT31;56065;52.472;13.380;2022-10-13T00:56:54;9.18;77.67
69009;SHT31;56065;52.472;13.380;2022-10-13T00:59:25;9.15;78.07
69009;SHT31;56065;52.472;13.380;2022-10-13T01:01:53;9.17;77.47
69009;SHT31;56065;52.472;13.380;2022-10-13T01:04:22;9.14;77.70
69009;SHT31;56065;52.472;13.380;2022-10-13T01:06:50;9.13;77.75
69009;SHT31;56065;52.472;13.380;2022-10-13T01:09:16;9.11;77.92
69009;SHT31;56065;52.472;13.380;2022-10-13T01:14:34;9.10;77.89
69009;SHT31;56065;52.472;13.380;2022-10-13T01:17:14;9.04;78.17
69009;SHT31;56065;52.472;13.380;2022-10-13T01:22:38;8.94;78.67
69009;SHT31;56065;52.472;13.380;2022-10-13T01:31:19;8.90;78.50
69009;SHT31;56065;52.472;13.380;2022-10-13T01:36:37;8.91;78.50
69009;SHT31;56065;52.472;13.380;2022-10-13T01:39:08;8.93;78.50
69009;SHT31;56065;52.472;13.380;2022-10-13T01:41:45;8.87;78.62
69009;SHT31;56065;52.472;13.380;2022-10-13T01:46:49;8.84;78.63
69009;SHT31;56065;52.472;13.380;2022-10-13T01:49:18;8.84;78.65
69009;SHT31;56065;52.472;13.380;2022-10-13T01:51:44;8.81;78.82
69009;SHT31;56065;52.472;13.380;2022-10-13T01:54:10;8.87;79.20
69009;SHT31;56065;52.472;13.380;2022-10-13T01:56:36;8.97;78.99
69009;SHT31;56065;52.472;13.380;2022-10-13T01:59:04;9.08;78.76
69009;SHT31;56065;52.472;13.380;2022-10-13T02:01:55;9.20;78.92
69009;SHT31;56065;52.472;13.380;2022-10-13T02:04:40;9.34;78.69
69009;SHT31;56065;52.472;13.380;2022-10-13T02:07:18;9.48;78.39
69009;SHT31;56065;52.472;13.380;2022-10-13T02:10:10;9.52;78.08
69009;SHT31;56065;52.472;13.380;2022-10-13T02:12:56;9.49;78.01
69009;SHT31;56065;52.472;13.380;2022-10-13T02:15:59;9.44;78.16
69009;SHT31;56065;52.472;13.380;2022-10-13T02:18:20;9.36;78.23
69009;SHT31;56065;52.472;13.380;2022-10-13T02:20:47;9.27;78.56
69009;SHT31;56065;52.472;13.380;2022-10-13T02:23:15;9.20;78.68
69009;SHT31;56065;52.472;13.380;2022-10-13T02:25:41;9.11;78.86
69009;SHT31;56065;52.472;13.380;2022-10-13T02:28:07;9.07;78.72
69009;SHT31;56065;52.472;13.380;2022-10-13T02:30:34;9.05;78.99
69009;SHT31;56065;52.472;13.380;2022-10-13T02:33:02;8.97;79.33
69009;SHT31;56065;52.472;13.380;2022-10-13T02:35:28;8.96;79.33
69009;SHT31;56065;52.472;13.380;2022-10-13T02:37:54;8.93;79.42
69009;SHT31;56065;52.472;13.380;2022-10-13T02:40:19;8.90;79.35
69009;SHT31;56065;52.472;13.380;2022-10-13T02:42:45;8.83;79.74
69009;SHT31;56065;52.472;13.380;2022-10-13T02:45:10;8.74;79.83
69009;SHT31;56065;52.472;13.380;2022-10-13T02:47:35;8.74;79.88
69009;SHT31;56065;52.472;13.380;2022-10-13T02:50:01;8.69;80.06
69009;SHT31;56065;52.472;13.380;2022-10-13T02:52:26;8.69;79.80
69009;SHT31;56065;52.472;13.380;2022-10-13T02:54:51;8.64;80.18
69009;SHT31;56065;52.472;13.380;2022-10-13T02:57:17;8.63;79.87
69009;SHT31;56065;52.472;13.380;2022-10-13T02:59:42;8.64;79.91
69009;SHT31;56065;52.472;13.380;2022-10-13T03:02:08;8.57;80.07
69009;SHT31;56065;52.472;13.380;2022-10-13T03:04:34;8.50;80.42
69009;SHT31;56065;52.472;13.380;2022-10-13T03:06:59;8.50;80.41
69009;SHT31;56065;52.472;13.380;2022-10-13T03:09:25;8.49;80.49
69009;SHT31;56065;52.472;13.380;2022-10-13T03:11:50;8.52;80.20
69009;SHT31;56065;52.472;13.380;2022-10-13T03:14:15;8.52;80.08
69009;SHT31;56065;52.472;13.380;2022-10-13T03:16:41;8.50;80.34
69009;SHT31;56065;52.472;13.380;2022-10-13T03:19:06;8.48;80.48
69009;SHT31;56065;52.472;13.380;2022-10-13T03:21:31;8.49;80.23
69009;SHT31;56065;52.472;13.380;2022-10-13T03:23:56;8.49;80.39
69009;SHT31;56065;52.472;13.380;2022-10-13T03:26:22;8.53;79.96
69009;SHT31;56065;52.472;13.380;2022-10-13T03:28:51;8.49;80.04
69009;SHT31;56065;52.472;13.380;2022-10-13T03:31:17;8.50;80.01
69009;SHT31;56065;52.472;13.380;2022-10-13T03:33:43;8.49;80.20
69009;SHT31;56065;52.472;13.380;2022-10-13T03:36:10;8.50;80.11
69009;SHT31;56065;52.472;13.380;2022-10-13T03:38:35;8.50;79.98
69009;SHT31;56065;52.472;13.380;2022-10-13T03:41:22;8.48;80.15
69009;SHT31;56065;52.472;13.380;2022-10-13T03:43:48;8.45;80.03
69009;SHT31;56065;52.472;13.380;2022-10-13T03:46:15;8.46;80.21
69009;SHT31;56065;52.472;13.380;2022-10-13T03:48:41;8.39;80.81
69009;SHT31;56065;52.472;13.380;2022-10-13T03:51:14;8.33;80.48
69009;SHT31;56065;52.472;13.380;2022-10-13T03:53:40;8.33;80.84
69009;SHT31;56065;52.472;13.380;2022-10-13T03:56:06;8.33;80.85
69009;SHT31;56065;52.472;13.380;2022-10-13T03:58:32;8.31;81.41
69009;SHT31;56065;52.472;13.380;2022-10-13T04:01:02;8.35;81.06
69009;SHT31;56065;52.472;13.380;2022-10-13T04:03:28;8.39;80.94
69009;SHT31;56065;52.472;13.380;2022-10-13T04:05:54;8.49;81.02
69009;SHT31;56065;52.472;13.380;2022-10-13T04:08:19;8.53;80.89
69009;SHT31;56065;52.472;13.380;2022-10-13T04:10:44;8.53;80.81
69009;SHT31;56065;52.472;13.380;2022-10-13T04:13:10;8.66;80.83
69009;SHT31;56065;52.472;13.380;2022-10-13T04:15:39;8.72;80.63
69009;SHT31;56065;52.472;13.380;2022-10-13T04:18:05;8.76;80.59
69009;SHT31;56065;52.472;13.380;2022-10-13T04:20:38;8.81;80.59
69009;SHT31;56065;52.472;13.380;2022-10-13T04:23:04;8.81;80.53
69009;SHT31;56065;52.472;13.380;2022-10-13T04:25:29;8.85;80.57
69009;SHT31;56065;52.472;13.380;2022-10-13T04:27:54;8.93;80.67
69009;SHT31;56065;52.472;13.380;2022-10-13T04:30:20;9.00;80.31
69009;SHT31;56065;52.472;13.380;2022-10-13T04:32:45;9.13;80.08
69009;SHT31;56065;52.472;13.380;2022-10-13T04:35:11;9.18;79.96
69009;SHT31;56065;52.472;13.380;2022-10-13T04:37:36;9.24;79.70
69009;SHT31;56065;52.472;13.380;2022-10-13T04:40:02;9.28;79.61
69009;SHT31;56065;52.472;13.380;2022-10-13T04:42:27;9.28;79.56
69009;SHT31;56065;52.472;13.380;2022-10-13T04:44:52;9.27;79.42
69009;SHT31;56065;52.472;13.380;2022-10-13T04:47:18;9.25;79.52
69009;SHT31;56065;52.472;13.380;2022-10-13T04:49:43;9.25;79.47
69009;SHT31;56065;52.472;13.380;2022-10-13T04:52:08;9.21;79.61
69009;SHT31;56065;52.472;13.380;2022-10-13T04:54:33;9.17;79.82
69009;SHT31;56065;52.472;13.380;2022-10-13T04:56:59;9.18;79.92
69009;SHT31;56065;52.472;13.380;2022-10-13T04:59:24;9.22;79.93
69009;SHT31;56065;52.472;13.380;2022-10-13T05:01:50;9.28;79.97
69009;SHT31;56065;52.472;13.380;2022-10-13T05:04:15;9.36;79.71
69009;SHT31;56065;52.472;13.380;2022-10-13T05:06:41;9.41;79.63
69009;SHT31;56065;52.472;13.380;2022-10-13T05:09:08;9.45;79.49
69009;SHT31;56065;52.472;13.380;2022-10-13T05:11:37;9.46;79.39
69009;SHT31;56065;52.472;13.380;2022-10-13T05:14:03;9.46;79.63
69009;SHT31;56065;52.472;13.380;2022-10-13T05:16:28;9.53;79.55
69009;SHT31;56065;52.472;13.380;2022-10-13T05:18:55;9.56;79.51
69009;SHT31;56065;52.472;13.380;2022-10-13T05:21:23;9.56;79.19
69009;SHT31;56065;52.472;13.380;2022-10-13T05:23:49;9.53;79.50
69009;SHT31;56065;52.472;13.380;2022-10-13T05:26:18;9.63;79.57
69009;SHT31;56065;52.472;13.380;2022-10-13T05:28:44;9.72;79.10
69009;SHT31;56065;52.472;13.380;2022-10-13T05:31:14;9.69;79.04
69009;SHT31;56065;52.472;13.380;2022-10-13T05:33:40;9.71;78.99
69009;SHT31;56065;52.472;13.380;2022-10-13T05:36:10;9.68;79.19
69009;SHT31;56065;52.472;13.380;2022-10-13T05:38:37;9.71;79.17
69009;SHT31;56065;52.472;13.380;2022-10-13T05:41:04;9.81;78.99
69009;SHT31;56065;52.472;13.380;2022-10-13T05:43:31;9.89;78.87
69009;SHT31;56065;52.472;13.380;2022-10-13T05:45:57;9.93;78.66
69009;SHT31;56065;52.472;13.380;2022-10-13T05:48:23;9.99;78.39
69009;SHT31;56065;52.472;13.380;2022-10-13T05:50:48;10.03;78.22
69009;SHT31;56065;52.472;13.380;2022-10-13T05:53:14;10.02;78.58
69009;SHT31;56065;52.472;13.380;2022-10-13T05:55:39;10.09;78.25
69009;SHT31;56065;52.472;13.380;2022-10-13T05:58:05;10.03;78.05
69009;SHT31;56065;52.472;13.380;2022-10-13T06:00:30;10.06;78.25
69009;SHT31;56065;52.472;13.380;2022-10-13T06:03:04;10.16;77.87
69009;SHT31;56065;52.472;13.380;2022-10-13T06:05:31;10.07;78.13
69009;SHT31;56065;52.472;13.380;2022-10-13T06:07:57;10.07;78.12
69009;SHT31;56065;52.472;13.380;2022-10-13T06:10:23;10.12;77.83
69009;SHT31;56065;52.472;13.380;2022-10-13T06:12:49;10.07;78.02
69009;SHT31;56065;52.472;13.380;2022-10-13T06:15:14;10.03;78.17
69009;SHT31;56065;52.472;13.380;2022-10-13T06:17:39;10.10;77.97
69009;SHT31;56065;52.472;13.380;2022-10-13T06:20:06;10.10;78.06
69009;SHT31;56065;52.472;13.380;2022-10-13T06:22:33;10.14;77.91
69009;SHT31;56065;52.472;13.380;2022-10-13T06:24:59;10.18;77.88
69009;SHT31;56065;52.472;13.380;2022-10-13T06:27:24;10.14;78.18
69009;SHT31;56065;52.472;13.380;2022-10-13T06:29:50;10.25;77.99
69009;SHT31;56065;52.472;13.380;2022-10-13T06:32:15;10.33;78.07
69009;SHT31;56065;52.472;13.380;2022-10-13T06:34:40;10.41;77.79
69009;SHT31;56065;52.472;13.380;2022-10-13T06:37:06;10.50;77.57
69009;SHT31;56065;52.472;13.380;2022-10-13T06:39:32;10.61;77.01
69009;SHT31;56065;52.472;13.380;2022-10-13T06:41:57;10.57;77.04
69009;SHT31;56065;52.472;13.380;2022-10-13T06:44:22;10.58;77.09
69009;SHT31;56065;52.472;13.380;2022-10-13T06:46:48;10.65;76.98
69009;SHT31;56065;52.472;13.380;2022-10-13T06:49:13;10.65;77.43
69009;SHT31;56065;52.472;13.380;2022-10-13T06:51:39;10.78;76.96
69009;SHT31;56065;52.472;13.380;2022-10-13T06:54:04;10.86;77.17
69009;SHT31;56065;52.472;13.380;2022-10-13T06:56:29;11.09;76.91
69009;SHT31;56065;52.472;13.380;2022-10-13T06:58:55;11.32;75.91
69009;SHT31;56065;52.472;13.380;2022-10-13T07:01:20;11.33;75.91
69009;SHT31;56065;52.472;13.380;2022-10-13T07:03:49;11.33;75.64
69009;SHT31;56065;52.472;13.380;2022-10-13T07:06:15;11.29;75.96
69009;SHT31;56065;52.472;13.380;2022-10-13T07:08:41;11.43;75.74
69009;SHT31;56065;52.472;13.380;2022-10-13T07:11:08;11.43;75.82
69009;SHT31;56065;52.472;13.380;2022-10-13T07:13:34;11.59;75.52
69009;SHT31;56065;52.472;13.380;2022-10-13T07:16:02;11.63;75.12
69009;SHT31;56065;52.472;13.380;2022-10-13T07:18:28;11.66;75.88
69009;SHT31;56065;52.472;13.380;2022-10-13T07:20:53;11.84;75.55
69009;SHT31;56065;52.472;13.380;2022-10-13T07:23:18;12.04;74.11
69009;SHT31;56065;52.472;13.380;2022-10-13T07:25:44;12.50;74.25
69009;SHT31;56065;52.472;13.380;2022-10-13T07:28:09;12.93;73.15
69009;SHT31;56065;52.472;13.380;2022-10-13T07:30:37;13.44;72.36
69009;SHT31;56065;52.472;13.380;2022-10-13T07:33:03;13.64;71.42
69009;SHT31;56065;52.472;13.380;2022-10-13T07:35:28;13.72;70.67
69009;SHT31;56065;52.472;13.380;2022-10-13T07:37:53;13.66;69.96
69009;SHT31;56065;52.472;13.380;2022-10-13T07:40:19;13.51;70.20
69009;SHT31;56065;52.472;13.380;2022-10-13T07:42:44;13.35;71.27
69009;SHT31;56065;52.472;13.380;2022-10-13T07:45:10;13.51;71.28
69009;SHT31;56065;52.472;13.380;2022-10-13T07:47:35;13.81;70.99
69009;SHT31;56065;52.472;13.380;2022-10-13T07:50:00;13.89;70.05
69009;SHT31;56065;52.472;13.380;2022-10-13T07:52:26;14.99;68.15
69009;SHT31;56065;52.472;13.380;2022-10-13T07:54:51;15.83;66.13
69009;SHT31;56065;52.472;13.380;2022-10-13T07:57:17;16.71;64.73
69009;SHT31;56065;52.472;13.380;2022-10-13T07:59:42;18.09;62.41
69009;SHT31;56065;52.472;13.380;2022-10-13T08:02:08;19.59;58.63
69009;SHT31;56065;52.472;13.380;2022-10-13T08:04:34;21.33;54.37
69009;SHT31;56065;52.472;13.380;2022-10-13T08:07:00;22.67;51.89
69009;SHT31;56065;52.472;13.380;2022-10-13T08:09:26;23.74;50.54
69009;SHT31;56065;52.472;13.380;2022-10-13T08:11:51;24.22;48.16
69009;SHT31;56065;52.472;13.380;2022-10-13T08:14:16;24.26;48.40
69009;SHT31;56065;52.472;13.380;2022-10-13T08:16:42;23.26;47.73
69009;SHT31;56065;52.472;13.380;2022-10-13T08:19:14;22.41;49.16
69009;SHT31;56065;52.472;13.380;2022-10-13T08:21:40;21.51;51.55
69009;SHT31;56065;52.472;13.380;2022-10-13T08:24:07;20.92;53.23
69009;SHT31;56065;52.472;13.380;2022-10-13T08:26:33;20.44;54.36
69009;SHT31;56065;52.472;13.380;2022-10-13T08:28:59;20.17;54.98
69009;SHT31;56065;52.472;13.380;2022-10-13T08:31:24;20.79;54.43
69009;SHT31;56065;52.472;13.380;2022-10-13T08:33:49;21.35;54.27
69009;SHT31;56065;52.472;13.380;2022-10-13T08:36:17;21.63;53.57
69009;SHT31;56065;52.472;13.380;2022-10-13T08:38:42;21.46;53.21
69009;SHT31;56065;52.472;13.380;2022-10-13T08:41:20;21.58;53.42
69009;SHT31;56065;52.472;13.380;2022-10-13T08:43:51;21.76;53.20
69009;SHT31;56065;52.472;13.380;2022-10-13T08:47:07;22.18;52.39
69009;SHT31;56065;52.472;13.380;2022-10-13T08:49:29;21.95;51.91
69009;SHT31;56065;52.472;13.380;2022-10-13T08:51:55;23.10;50.18
69009;SHT31;56065;52.472;13.380;2022-10-13T08:54:24;24.13;49.52
69009;SHT31;56065;52.472;13.380;2022-10-13T08:56:51;23.98;49.56
69009;SHT31;56065;52.472;13.380;2022-10-13T08:59:17;23.89;48.94
69009;SHT31;56065;52.472;13.380;2022-10-13T09:01:43;23.34;49.38
69009;SHT31;56065;52.472;13.380;2022-10-13T09:06:52;21.91;52.50
69009;SHT31;56065;52.472;13.380;2022-10-13T09:09:18;21.70;53.09
69009;SHT31;56065;52.472;13.380;2022-10-13T09:11:46;21.40;53.86
69009;SHT31;56065;52.472;13.380;2022-10-13T09:14:41;21.03;54.73
69009;SHT31;56065;52.472;13.380;2022-10-13T09:17:21;20.45;55.58
69009;SHT31;56065;52.472;13.380;2022-10-13T09:22:43;19.55;57.91
69009;SHT31;56065;52.472;13.380;2022-10-13T09:25:20;19.01;59.38
69009;SHT31;56065;52.472;13.380;2022-10-13T09:28:00;18.67;59.74
69009;SHT31;56065;52.472;13.380;2022-10-13T09:30:35;18.67;60.60
69009;SHT31;56065;52.472;13.380;2022-10-13T09:35:37;18.60;60.83
69009;SHT31;56065;52.472;13.380;2022-10-13T09:40:32;18.80;61.43
69009;SHT31;56065;52.472;13.380;2022-10-13T09:42:59;18.98;61.05
69009;SHT31;56065;52.472;13.380;2022-10-13T09:45:26;19.08;61.04
69009;SHT31;56065;52.472;13.380;2022-10-13T09:48:04;19.32;60.80
69009;SHT31;56065;52.472;13.380;2022-10-13T09:50:32;19.55;60.47
69009;SHT31;56065;52.472;13.380;2022-10-13T09:53:16;19.65;59.70
69009;SHT31;56065;52.472;13.380;2022-10-13T09:55:44;19.86;59.62
69009;SHT31;56065;52.472;13.380;2022-10-13T10:00:42;20.23;59.02
69009;SHT31;56065;52.472;13.380;2022-10-13T10:03:15;20.23;59.61
69009;SHT31;56065;52.472;13.380;2022-10-13T10:10:48;20.41;58.91
69009;SHT31;56065;52.472;13.380;2022-10-13T10:13:14;20.72;58.27
69009;SHT31;56065;52.472;13.380;2022-10-13T10:15:55;22.02;56.97
69009;SHT31;56065;52.472;13.380;2022-10-13T10:21:55;24.02;52.26
69009;SHT31;56065;52.472;13.380;2022-10-13T10:27:02;24.22;51.90
69009;SHT31;56065;52.472;13.380;2022-10-13T10:29:47;23.76;51.66
69009;SHT31;56065;52.472;13.380;2022-10-13T10:35:31;23.55;52.96
69009;SHT31;56065;52.472;13.380;2022-10-13T10:40:35;23.76;52.45
69009;SHT31;56065;52.472;13.380;2022-10-13T10:45:49;24.17;51.85
69009;SHT31;56065;52.472;13.380;2022-10-13T10:48:23;24.08;51.82
69009;SHT31;56065;52.472;13.380;2022-10-13T10:50:52;24.09;52.49
69009;SHT31;56065;52.472;13.380;2022-10-13T11:04:42;23.18;54.36
69009;SHT31;56065;52.472;13.380;2022-10-13T11:15:15;23.38;53.23
69009;SHT31;56065;52.472;13.380;2022-10-13T11:17:46;23.79;53.18
69009;SHT31;56065;52.472;13.380;2022-10-13T11:25:36;24.50;50.09
69009;SHT31;56065;52.472;13.380;2022-10-13T11:30:49;25.83;49.13
69009;SHT31;56065;52.472;13.380;2022-10-13T11:33:35;26.20;48.68
69009;SHT31;56065;52.472;13.380;2022-10-13T11:39:34;25.39;49.65
69009;SHT31;56065;52.472;13.380;2022-10-13T11:45:46;24.39;51.31
69009;SHT31;56065;52.472;13.380;2022-10-13T11:56:50;26.06;47.85
69009;SHT31;56065;52.472;13.380;2022-10-13T11:59:26;25.50;47.42
69009;SHT31;56065;52.472;13.380;2022-10-13T12:01:57;24.94;48.34
69009;SHT31;56065;52.472;13.380;2022-10-13T12:04:24;23.90;50.23
69009;SHT31;56065;52.472;13.380;2022-10-13T12:06:59;23.07;52.02
69009;SHT31;56065;52.472;13.380;2022-10-13T12:09:25;23.16;52.94
69009;SHT31;56065;52.472;13.380;2022-10-13T12:12:02;23.55;52.02
69009;SHT31;56065;52.472;13.380;2022-10-13T12:14:39;23.23;52.24
69009;SHT31;56065;52.472;13.380;2022-10-13T12:17:19;22.89;52.70
69009;SHT31;56065;52.472;13.380;2022-10-13T12:19:45;22.62;53.19
69009;SHT31;56065;52.472;13.380;2022-10-13T12:22:12;23.16;53.08
69009;SHT31;56065;52.472;13.380;2022-10-13T12:24:37;23.58;52.47
69009;SHT31;56065;52.472;13.380;2022-10-13T12:27:21;23.40;52.67
69009;SHT31;56065;52.472;13.380;2022-10-13T12:29:46;24.02;51.42
69009;SHT31;56065;52.472;13.380;2022-10-13T12:32:20;24.32;49.55
69009;SHT31;56065;52.472;13.380;2022-10-13T12:34:46;23.92;49.31
69009;SHT31;56065;52.472;13.380;2022-10-13T12:37:31;23.48;50.61
69009;SHT31;56065;52.472;13.380;2022-10-13T12:39:59;23.10;50.86
69009;SHT31;56065;52.472;13.380;2022-10-13T12:42:35;22.80;50.19
69009;SHT31;56065;52.472;13.380;2022-10-13T12:45:02;22.72;50.86
69009;SHT31;56065;52.472;13.380;2022-10-13T12:47:39;22.19;51.96
69009;SHT31;56065;52.472;13.380;2022-10-13T12:55:26;20.64;55.57
69009;SHT31;56065;52.472;13.380;2022-10-13T12:57:52;20.38;56.16
69009;SHT31;56065;52.472;13.380;2022-10-13T13:05:39;20.23;56.71
69009;SHT31;56065;52.472;13.380;2022-10-13T13:11:19;20.06;56.65
69009;SHT31;56065;52.472;13.380;2022-10-13T13:13:46;19.92;57.20
69009;SHT31;56065;52.472;13.380;2022-10-13T13:16:16;20.03;57.07
69009;SHT31;56065;52.472;13.380;2022-10-13T13:18:43;19.82;57.35
69009;SHT31;56065;52.472;13.380;2022-10-13T13:21:14;19.98;57.73
69009;SHT31;56065;52.472;13.380;2022-10-13T13:23:43;19.94;57.58
69009;SHT31;56065;52.472;13.380;2022-10-13T13:28:52;19.90;58.11
69009;SHT31;56065;52.472;13.380;2022-10-13T13:31:20;20.04;57.93
69009;SHT31;56065;52.472;13.380;2022-10-13T13:33:47;20.12;57.61
69009;SHT31;56065;52.472;13.380;2022-10-13T13:36:14;19.93;58.21
69009;SHT31;56065;52.472;13.380;2022-10-13T13:38:41;20.04;58.21
69009;SHT31;56065;52.472;13.380;2022-10-13T13:41:09;20.07;59.36
69009;SHT31;56065;52.472;13.380;2022-10-13T13:43:34;20.13;58.23
69009;SHT31;56065;52.472;13.380;2022-10-13T13:45:59;20.14;58.28
69009;SHT31;56065;52.472;13.380;2022-10-13T13:48:25;20.17;58.00
69009;SHT31;56065;52.472;13.380;2022-10-13T13:50:50;20.14;58.23
69009;SHT31;56065;52.472;13.380;2022-10-13T13:53:16;20.28;58.11
69009;SHT31;56065;52.472;13.380;2022-10-13T13:55:42;20.16;58.71
69009;SHT31;56065;52.472;13.380;2022-10-13T13:58:08;20.23;58.50
69009;SHT31;56065;52.472;13.380;2022-10-13T14:00:34;20.51;58.21
69009;SHT31;56065;52.472;13.380;2022-10-13T14:02:59;20.76;57.59
69009;SHT31;56065;52.472;13.380;2022-10-13T14:05:25;20.92;57.25
69009;SHT31;56065;52.472;13.380;2022-10-13T14:07:55;21.22;56.84
69009;SHT31;56065;52.472;13.380;2022-10-13T14:10:22;21.13;56.62
69009;SHT31;56065;52.472;13.380;2022-10-13T14:12:47;21.36;56.69
69009;SHT31;56065;52.472;13.380;2022-10-13T14:15:13;21.46;56.68
69009;SHT31;56065;52.472;13.380;2022-10-13T14:17:38;21.33;56.34
69009;SHT31;56065;52.472;13.380;2022-10-13T14:20:04;21.13;56.75
69009;SHT31;56065;52.472;13.380;2022-10-13T14:22:29;21.10;56.64
69009;SHT31;56065;52.472;13.380;2022-10-13T14:24:55;21.18;62.17
69009;SHT31;56065;52.472;13.380;2022-10-13T14:27:20;21.10;60.21
69009;SHT31;56065;52.472;13.380;2022-10-13T14:29:45;21.02;57.07
69009;SHT31;56065;52.472;13.380;2022-10-13T14:32:11;20.82;59.60
69009;SHT31;56065;52.472;13.380;2022-10-13T14:34:36;20.64;59.47
69009;SHT31;56065;52.472;13.380;2022-10-13T14:37:02;20.36;57.30
69009;SHT31;56065;52.472;13.380;2022-10-13T14:39:27;20.38;61.19
69009;SHT31;56065;52.472;13.380;2022-10-13T14:41:52;20.31;59.68
69009;SHT31;56065;52.472;13.380;2022-10-13T14:44:18;20.16;59.47
69009;SHT31;56065;52.472;13.380;2022-10-13T14:46:43;20.24;59.09
69009;SHT31;56065;52.472;13.380;2022-10-13T14:49:09;20.18;58.56
69009;SHT31;56065;52.472;13.380;2022-10-13T14:51:35;20.37;59.18
69009;SHT31;56065;52.472;13.380;2022-10-13T14:54:00;20.37;57.25
69009;SHT31;56065;52.472;13.380;2022-10-13T14:56:28;20.09;58.16
69009;SHT31;56065;52.472;13.380;2022-10-13T14:58:59;20.00;59.03
69009;SHT31;56065;52.472;13.380;2022-10-13T15:01:25;20.00;57.50
69009;SHT31;56065;52.472;13.380;2022-10-13T15:03:50;19.85;57.94
69009;SHT31;56065;52.472;13.380;2022-10-13T15:06:18;19.65;58.16
69009;SHT31;56065;52.472;13.380;2022-10-13T15:08:44;19.48;61.60
69009;SHT31;56065;52.472;13.380;2022-10-13T15:11:10;19.36;59.35
69009;SHT31;56065;52.472;13.380;2022-10-13T15:13:36;19.22;60.78
69009;SHT31;56065;52.472;13.380;2022-10-13T15:16:02;19.10;60.14
69009;SHT31;56065;52.472;13.380;2022-10-13T15:18:29;18.88;62.50
69009;SHT31;56065;52.472;13.380;2022-10-13T15:20:55;18.76;60.39
69009;SHT31;56065;52.472;13.380;2022-10-13T15:23:21;18.63;62.55
69009;SHT31;56065;52.472;13.380;2022-10-13T15:28:21;18.35;62.68
69009;SHT31;56065;52.472;13.380;2022-10-13T15:30:46;18.19;62.04
69009;SHT31;56065;52.472;13.380;2022-10-13T15:33:12;18.13;62.52
69009;SHT31;56065;52.472;13.380;2022-10-13T15:35:37;18.04;63.27
69009;SHT31;56065;52.472;13.380;2022-10-13T15:38:03;17.95;63.10
69009;SHT31;56065;52.472;13.380;2022-10-13T15:40:28;17.84;63.79
69009;SHT31;56065;52.472;13.380;2022-10-13T15:42:57;17.75;64.79
69009;SHT31;56065;52.472;13.380;2022-10-13T15:45:23;17.70;63.89
69009;SHT31;56065;52.472;13.380;2022-10-13T15:47:50;17.64;65.04
69009;SHT31;56065;52.472;13.380;2022-10-13T15:50:15;17.57;64.59
69009;SHT31;56065;52.472;13.380;2022-10-13T15:52:41;17.57;63.77
69009;SHT31;56065;52.472;13.380;2022-10-13T15:55:08;17.47;63.99
69009;SHT31;56065;52.472;13.380;2022-10-13T15:57:33;17.41;64.28
69009;SHT31;56065;52.472;13.380;2022-10-13T15:59:59;17.33;66.36
69009;SHT31;56065;52.472;13.380;2022-10-13T16:02:24;17.28;65.88
69009;SHT31;56065;52.472;13.380;2022-10-13T16:04:50;17.24;66.27
69009;SHT31;56065;52.472;13.380;2022-10-13T16:07:15;17.22;65.66
69009;SHT31;56065;52.472;13.380;2022-10-13T16:09:43;17.23;65.75
69009;SHT31;56065;52.472;13.380;2022-10-13T16:12:11;17.24;65.85
69009;SHT31;56065;52.472;13.380;2022-10-13T16:14:36;17.23;65.43
69009;SHT31;56065;52.472;13.380;2022-10-13T16:17:02;17.15;65.74
69009;SHT31;56065;52.472;13.380;2022-10-13T16:19:28;17.09;66.05
69009;SHT31;56065;52.472;13.380;2022-10-13T16:21:54;17.00;66.99
69009;SHT31;56065;52.472;13.380;2022-10-13T16:24:19;16.96;66.11
69009;SHT31;56065;52.472;13.380;2022-10-13T16:26:44;16.87;66.12
69009;SHT31;56065;52.472;13.380;2022-10-13T16:29:10;16.82;65.89
69009;SHT31;56065;52.472;13.380;2022-10-13T16:31:35;16.72;66.04
69009;SHT31;56065;52.472;13.380;2022-10-13T16:34:01;16.58;66.52
69009;SHT31;56065;52.472;13.380;2022-10-13T16:36:26;16.51;66.71
69009;SHT31;56065;52.472;13.380;2022-10-13T16:38:52;16.40;66.95
69009;SHT31;56065;52.472;13.380;2022-10-13T16:41:20;16.31;67.18
69009;SHT31;56065;52.472;13.380;2022-10-13T16:43:46;16.24;67.50
69009;SHT31;56065;52.472;13.380;2022-10-13T16:46:14;16.11;67.80
69009;SHT31;56065;52.472;13.380;2022-10-13T16:48:40;16.03;68.04
69009;SHT31;56065;52.472;13.380;2022-10-13T16:51:08;15.96;68.43
69009;SHT31;56065;52.472;13.380;2022-10-13T16:53:34;15.91;68.66
69009;SHT31;56065;52.472;13.380;2022-10-13T16:55:59;15.89;68.75
69009;SHT31;56065;52.472;13.380;2022-10-13T16:58:25;15.89;68.74
69009;SHT31;56065;52.472;13.380;2022-10-13T17:00:50;15.84;68.91
69009;SHT31;56065;52.472;13.380;2022-10-13T17:03:16;15.80;68.86
69009;SHT31;56065;52.472;13.380;2022-10-13T17:05:41;15.79;68.70
69009;SHT31;56065;52.472;13.380;2022-10-13T17:08:06;15.74;69.07
69009;SHT31;56065;52.472;13.380;2022-10-13T17:10:32;15.70;69.10
69009;SHT31;56065;52.472;13.380;2022-10-13T17:12:58;15.70;69.51
69009;SHT31;56065;52.472;13.380;2022-10-13T17:15:24;15.70;69.00
69009;SHT31;56065;52.472;13.380;2022-10-13T17:17:49;15.70;69.01
69009;SHT31;56065;52.472;13.380;2022-10-13T17:20:15;15.69;69.26